createdAt,value
2016-06-28T14:29:00.083Z,996.34
2016-06-28T14:30:00.314Z,996.41
2016-06-28T14:31:00.126Z,996.38
2016-06-28T14:32:00.136Z,996.3
2016-06-28T14:33:00.985Z,996.26
2016-06-28T14:34:00.173Z,996.19
2016-06-28T14:35:00.176Z,996.2
2016-06-28T14:36:00.201Z,996.15
2016-06-28T14:37:00.211Z,996.14
2016-06-28T14:38:00.243Z,996.13
2016-06-28T14:39:00.454Z,996.14
2016-06-28T14:40:00.267Z,996.1
2016-06-28T14:42:00.495Z,996.16
2016-06-28T14:43:00.309Z,996.16
2016-06-28T14:44:00.545Z,996.21
2016-06-28T14:45:00.333Z,996.28
2016-06-28T14:46:00.352Z,996.31
2016-06-28T14:47:00.373Z,996.27
2016-06-28T14:48:00.387Z,996.21
2016-06-28T14:49:00.602Z,996.18
2016-06-28T14:50:00.437Z,996.13
2016-06-28T14:51:00.451Z,996.14
2016-06-28T14:52:00.463Z,996.14
2016-06-28T14:54:00.688Z,996.13
2016-06-28T14:55:00.496Z,996.18
2016-06-28T14:56:00.703Z,996.09
2016-06-28T14:57:00.516Z,996.05
2016-06-28T14:58:00.536Z,996.05
2016-06-28T14:59:00.566Z,996.03
2016-06-28T15:00:00.574Z,996.06
2016-06-28T15:01:00.580Z,996.04
2016-06-28T15:02:00.594Z,996.07
2016-06-28T15:03:01.019Z,996.05
2016-06-28T15:04:00.630Z,996.07
2016-06-28T15:06:00.658Z,996.15
2016-06-28T15:07:00.871Z,996.17
2016-06-28T15:08:00.691Z,996.2
2016-06-28T15:09:00.905Z,996.23
2016-06-28T15:10:00.920Z,996.21
2016-06-28T15:12:00.759Z,996.21
2016-06-28T15:13:00.773Z,996.19
2016-06-28T15:14:00.808Z,996.15
2016-06-28T15:15:00.791Z,996.12
2016-06-28T15:16:00.819Z,996.1
2016-06-28T15:17:00.826Z,996.08
2016-06-28T15:19:00.849Z,996.07
2016-06-28T15:20:00.871Z,996.07
2016-06-28T15:21:00.882Z,996.08
2016-06-28T15:22:01.321Z,996.09
2016-06-28T15:23:00.908Z,996.12
2016-06-28T15:24:00.933Z,996.09
2016-06-28T15:25:00.960Z,996.12
2016-06-28T16:06:45.555Z,995.71
2016-06-28T16:07:45.973Z,995.68
2016-06-28T16:08:45.579Z,995.66
2016-06-28T16:09:45.581Z,995.67
2016-06-28T16:10:45.820Z,995.63
2016-06-28T16:11:45.895Z,995.64
2016-06-28T16:12:46.216Z,995.66
2016-06-28T16:13:45.791Z,995.62
2016-06-28T16:15:45.699Z,995.62
2016-06-28T16:16:45.715Z,995.65
2016-06-28T16:17:45.807Z,995.71
2016-06-28T16:18:45.753Z,995.72
2016-06-28T16:20:45.744Z,995.62
2016-06-28T16:21:45.757Z,995.66
2016-06-28T16:22:45.771Z,995.62
2016-06-28T16:23:45.859Z,995.59
2016-06-28T16:24:45.820Z,995.57
2016-06-28T16:25:45.849Z,995.55
2016-06-28T16:26:45.845Z,995.56
2016-06-28T16:27:45.879Z,995.51
2016-06-28T16:28:45.860Z,995.58
2016-06-28T16:29:45.899Z,995.6
2016-06-28T16:30:45.912Z,995.59
2016-06-28T16:32:45.922Z,995.53
2016-06-28T16:33:45.928Z,995.53
2016-06-28T16:34:45.951Z,995.54
2016-06-28T16:35:46.167Z,995.52
2016-06-28T16:36:45.971Z,995.46
2016-06-28T16:37:45.999Z,995.45
2016-06-28T16:38:46.007Z,995.43
2016-06-28T16:39:46.441Z,995.41
2016-06-28T16:40:46.059Z,995.4
2016-06-28T16:42:46.102Z,995.35
2016-06-28T16:43:46.157Z,995.32
2016-06-28T16:45:46.129Z,995.33
2016-06-28T16:46:46.122Z,995.31
2016-06-28T16:47:46.534Z,995.32
2016-06-28T16:48:46.209Z,995.33
2016-06-28T16:49:46.441Z,995.3
2016-06-28T16:50:46.424Z,995.32
2016-06-28T16:51:46.181Z,995.3
2016-06-28T16:52:46.246Z,995.3
2016-06-28T16:53:46.205Z,995.28
2016-06-28T16:54:46.281Z,995.34
2016-06-28T16:55:46.276Z,995.31
2016-06-28T16:58:46.279Z,995.29
2016-06-28T16:59:46.302Z,995.3
2016-06-28T17:01:46.731Z,995.33
2016-06-28T17:02:46.599Z,995.38
2016-06-28T17:03:46.958Z,995.39
2016-06-28T17:04:46.546Z,995.41
2016-06-28T17:05:46.395Z,995.41
2016-06-28T17:06:46.395Z,995.46
2016-06-28T17:07:46.398Z,995.44
2016-06-28T17:08:46.426Z,995.4
2016-06-28T17:09:46.426Z,995.41
2016-06-28T17:10:46.490Z,995.42
2016-06-28T17:12:55.707Z,995.45
2016-06-28T17:13:55.712Z,995.41
2016-06-28T17:14:55.771Z,995.45
2016-06-28T17:16:55.938Z,995.45
2016-06-28T17:18:55.747Z,995.42
2016-06-28T17:19:55.752Z,995.44
2016-06-28T17:20:55.811Z,995.4
2016-06-28T17:21:56.013Z,995.39
2016-06-28T17:22:55.803Z,995.42
2016-06-28T17:23:55.809Z,995.46
2016-06-28T17:24:55.818Z,995.46
2016-06-28T17:25:55.871Z,995.5
2016-06-28T17:26:55.866Z,995.47
2016-06-28T17:27:56.074Z,995.47
2016-06-28T17:28:55.893Z,995.46
2016-06-28T17:30:55.895Z,995.45
2016-06-28T17:31:56.330Z,995.43
2016-06-28T17:32:55.928Z,995.41
2016-06-28T17:33:56.018Z,995.43
2016-06-28T17:35:55.976Z,995.37
2016-06-28T17:36:56.120Z,995.37
2016-06-28T17:37:56.042Z,995.35
2016-06-28T17:38:56.046Z,995.32
2016-06-28T17:39:56.030Z,995.31
2016-06-28T17:40:56.239Z,995.32
2016-06-28T17:41:56.049Z,995.25
2016-06-28T17:42:56.083Z,995.25
2016-06-28T17:43:56.497Z,995.3
2016-06-28T17:44:56.098Z,995.29
2016-06-28T17:45:56.123Z,995.31
2016-06-28T17:46:56.119Z,995.29
2016-06-28T17:47:56.163Z,995.28
2016-06-28T17:48:56.355Z,995.27
2016-06-28T17:49:56.201Z,995.26
2016-06-28T17:51:56.231Z,995.28
2016-06-28T17:52:56.207Z,995.3
2016-06-28T17:53:56.442Z,995.24
2016-06-28T17:54:56.245Z,995.23
2016-06-28T17:55:56.270Z,995.2
2016-06-28T17:56:56.342Z,995.18
2016-06-28T17:57:56.731Z,995.19
2016-06-28T17:58:56.343Z,995.19
2016-06-28T17:59:56.539Z,995.17
2016-06-28T18:00:56.375Z,995.22
2016-06-28T18:02:56.429Z,995.28
2016-06-28T18:03:56.778Z,995.26
2016-06-28T18:04:56.446Z,995.2
2016-06-28T18:05:56.596Z,995.24
2016-06-28T18:06:56.389Z,995.22
2016-06-28T18:08:56.465Z,995.23
2016-06-28T18:10:56.529Z,995.22
2016-06-28T18:11:56.587Z,995.28
2016-06-28T18:12:56.878Z,995.25
2016-06-28T18:13:56.738Z,995.28
2016-06-28T18:14:56.541Z,995.29
2016-06-28T18:15:56.503Z,995.26
2016-06-28T18:16:56.613Z,995.24
2016-06-28T18:17:56.547Z,995.22
2016-06-28T18:18:56.872Z,995.22
2016-06-28T18:19:56.784Z,995.22
2016-06-28T18:20:56.587Z,995.16
2016-06-28T18:21:56.577Z,995.21
2016-06-28T18:22:56.657Z,995.17
2016-06-28T18:23:56.613Z,995.19
2016-06-28T18:24:56.886Z,995.22
2016-06-28T18:25:56.664Z,995.21
2016-06-28T18:26:56.769Z,995.24
2016-06-28T18:28:57.117Z,995.15
2016-06-28T18:29:56.689Z,995.17
2016-06-28T18:30:56.906Z,995.15
2016-06-28T18:31:56.712Z,995.11
2016-06-28T18:32:57.108Z,995.13
2016-06-28T18:33:56.736Z,995.14
2016-06-28T18:35:56.793Z,995.16
2016-06-28T18:36:56.785Z,995.2
2016-06-28T18:37:56.796Z,995.18
2016-06-28T18:38:56.836Z,995.19
2016-06-28T18:39:56.858Z,995.22
2016-06-28T18:40:56.895Z,995.18
2016-06-28T18:41:57.398Z,995.24
2016-06-28T18:42:57.142Z,995.23
2016-06-28T18:43:56.934Z,995.21
2016-06-28T18:44:56.898Z,995.21
2016-06-28T18:45:56.893Z,995.18
2016-06-28T18:47:56.921Z,995.16
2016-06-28T18:48:56.923Z,995.14
2016-06-28T18:49:57.345Z,995.15
2016-06-28T18:50:56.961Z,995.13
2016-06-28T18:51:57.206Z,995.12
2016-06-28T18:52:57.003Z,995.14
2016-06-28T18:53:57.422Z,995.17
2016-06-28T18:54:57.226Z,995.16
2016-06-28T18:55:57.049Z,995.19
2016-06-28T18:56:57.045Z,995.2
2016-06-28T18:57:57.064Z,995.21
2016-06-28T18:58:57.057Z,995.25
2016-06-28T18:59:57.312Z,995.27
2016-06-28T19:00:57.297Z,995.26
2016-06-28T19:01:57.103Z,995.29
2016-06-28T19:02:57.310Z,995.28
2016-06-28T19:03:57.315Z,995.27
2016-06-28T19:06:57.180Z,995.29
2016-06-28T19:07:57.170Z,995.26
2016-06-28T19:08:57.195Z,995.23
2016-06-28T19:09:57.200Z,995.23
2016-06-28T19:10:57.215Z,995.28
2016-06-28T19:11:57.262Z,995.24
2016-06-28T19:12:57.449Z,995.26
2016-06-28T19:13:57.262Z,995.23
2016-06-28T19:14:57.273Z,995.26
2016-06-28T19:16:57.499Z,995.25
2016-06-28T19:17:57.350Z,995.21
2016-06-28T19:18:57.320Z,995.2
2016-06-28T19:19:57.310Z,995.19
2016-06-28T19:20:57.330Z,995.16
2016-06-28T19:21:57.346Z,995.12
2016-06-28T19:22:57.340Z,995.17
2016-06-28T19:23:57.576Z,995.13
2016-06-28T19:24:57.368Z,995.16
2016-06-28T19:25:57.370Z,995.15
2016-06-28T19:26:57.417Z,995.16
2016-06-28T19:28:57.465Z,995.21
2016-06-28T19:29:57.426Z,995.2
2016-06-28T19:30:57.689Z,995.18
2016-06-28T19:31:57.457Z,995.19
2016-06-28T19:32:57.495Z,995.2
2016-06-28T19:33:57.487Z,995.21
2016-06-28T19:35:57.711Z,995.21
2016-06-28T19:36:58.338Z,995.18
2016-06-28T19:37:57.540Z,995.16
2016-06-28T19:40:57.795Z,995.15
2016-06-28T19:41:57.568Z,995.13
2016-06-28T19:42:57.583Z,995.13
2016-06-28T19:43:57.600Z,995.15
2016-06-28T19:44:57.596Z,995.16
2016-06-28T19:45:57.619Z,995.15
2016-06-28T19:46:57.619Z,995.13
2016-06-28T19:47:57.629Z,995.14
2016-06-28T19:48:57.873Z,995.09
2016-06-28T19:49:58.160Z,995.11
2016-06-28T19:50:57.714Z,995.12
2016-06-28T19:51:57.713Z,995.12
2016-06-28T19:52:57.886Z,995.06
2016-06-28T19:53:57.695Z,995.11
2016-06-28T19:55:57.741Z,995.09
2016-06-28T19:56:57.791Z,995.08
2016-06-28T19:57:57.803Z,995.11
2016-06-28T19:58:57.758Z,995.13
2016-06-28T19:59:57.971Z,995.12
2016-06-28T20:00:57.775Z,995.15
2016-06-28T20:01:57.794Z,995.12
2016-06-28T20:02:58.221Z,995.14
2016-06-28T20:03:58.425Z,995.17
2016-06-28T20:04:58.023Z,995.13
2016-06-28T20:05:57.832Z,995.1
2016-06-28T20:06:58.063Z,995.1
2016-06-28T20:07:57.850Z,995.11
2016-06-28T20:08:57.870Z,995.11
2016-06-28T20:09:57.901Z,995.09
2016-06-28T20:10:57.965Z,995.07
2016-06-28T20:11:57.903Z,995.08
2016-06-28T20:12:57.924Z,995.07
2016-06-28T20:13:57.923Z,995.02
2016-06-28T20:14:57.931Z,995.02
2016-06-28T20:15:57.951Z,995.03
2016-06-28T20:16:58.177Z,995
2016-06-28T20:17:58.008Z,995
2016-06-28T20:18:58.183Z,994.99
2016-06-28T20:19:57.990Z,994.99
2016-06-28T20:20:58.203Z,994.98
2016-06-28T20:21:58.025Z,994.99
2016-06-28T20:22:58.023Z,994.97
2016-06-28T20:23:58.022Z,994.96
2016-06-28T20:24:58.042Z,994.99
2016-06-28T20:25:58.259Z,995.02
2016-06-28T20:26:58.258Z,995
2016-06-28T20:27:58.065Z,995
2016-06-28T20:28:58.077Z,994.94
2016-06-28T20:29:58.107Z,994.95
2016-06-28T20:30:58.098Z,994.94
2016-06-28T20:31:58.112Z,994.92
2016-06-28T20:32:58.750Z,994.92
2016-06-28T20:33:58.325Z,994.89
2016-06-28T20:34:58.246Z,994.89
2016-06-28T20:35:58.189Z,994.87
2016-06-28T20:36:58.158Z,994.87
2016-06-28T20:37:58.167Z,994.87
2016-06-28T20:38:58.209Z,994.83
2016-06-28T20:39:59.423Z,994.85
2016-06-28T20:40:58.202Z,994.83
2016-06-28T20:42:58.237Z,994.91
2016-06-28T20:43:58.240Z,994.88
2016-06-28T20:44:58.250Z,994.87
2016-06-28T20:45:58.252Z,994.85
2016-06-28T20:46:58.258Z,994.88
2016-06-28T20:47:58.271Z,994.91
2016-06-28T20:48:58.288Z,994.94
2016-06-28T20:51:58.524Z,994.93
2016-06-28T20:52:58.328Z,994.93
2016-06-28T20:53:58.336Z,994.89
2016-06-28T20:55:58.371Z,994.9
2016-06-28T20:56:58.366Z,994.89
2016-06-28T20:57:58.586Z,994.88
2016-06-28T20:58:58.583Z,994.87
2016-06-28T20:59:58.399Z,994.85
2016-06-28T21:00:58.403Z,994.78
2016-06-28T21:01:58.406Z,994.79
2016-06-28T21:02:58.423Z,994.75
2016-06-28T21:03:58.430Z,994.73
2016-06-28T21:04:58.438Z,994.71
2016-06-28T21:05:58.450Z,994.7
2016-06-28T21:06:58.456Z,994.64
2016-06-28T21:07:58.478Z,994.65
2016-06-28T21:09:58.689Z,994.59
2016-06-28T21:10:58.516Z,994.61
2016-06-28T21:11:58.506Z,994.59
2016-06-28T21:12:58.522Z,994.54
2016-06-28T21:13:58.528Z,994.59
2016-06-28T21:14:58.541Z,994.55
2016-06-28T21:15:58.545Z,994.55
2016-06-28T21:16:58.553Z,994.54
2016-06-28T21:17:58.570Z,994.53
2016-06-28T21:18:58.595Z,994.55
2016-06-28T21:19:58.581Z,994.55
2016-06-28T21:20:58.597Z,994.54
2016-06-28T21:21:58.826Z,994.55
2016-06-28T21:22:58.619Z,994.56
2016-06-28T21:23:58.630Z,994.56
2016-06-28T21:24:58.639Z,994.53
2016-06-28T21:25:58.641Z,994.56
2016-06-28T21:26:58.874Z,994.54
2016-06-28T21:27:58.671Z,994.55
2016-06-28T21:28:58.682Z,994.54
2016-06-28T21:29:58.693Z,994.53
2016-06-28T21:30:58.696Z,994.54
2016-06-28T21:31:58.707Z,994.53
2016-06-28T21:32:58.706Z,994.49
2016-06-28T21:33:58.716Z,994.46
2016-06-28T21:34:58.722Z,994.46
2016-06-28T21:35:58.733Z,994.38
2016-06-28T21:37:58.772Z,994.43
2016-06-28T21:38:58.782Z,994.38
2016-06-28T21:39:58.793Z,994.37
2016-06-28T21:41:59.006Z,994.35
2016-06-28T21:43:58.809Z,994.33
2016-06-28T21:45:58.828Z,994.27
2016-06-28T21:46:58.845Z,994.22
2016-06-28T21:47:58.860Z,994.28
2016-06-28T21:48:58.859Z,994.3
2016-06-28T21:49:58.868Z,994.29
2016-06-28T21:50:58.878Z,994.26
2016-06-28T21:51:58.882Z,994.28
2016-06-28T21:52:58.899Z,994.29
2016-06-28T21:53:58.898Z,994.27
2016-06-28T21:54:58.907Z,994.27
2016-06-28T21:55:59.123Z,994.27
2016-06-28T21:56:58.926Z,994.25
2016-06-28T21:57:59.150Z,994.24
2016-06-28T21:58:58.947Z,994.24
2016-06-28T21:59:58.953Z,994.22
2016-06-28T22:00:58.957Z,994.21
2016-06-28T22:01:58.966Z,994.2
2016-06-28T22:02:58.976Z,994.19
2016-06-28T22:03:58.986Z,994.15
2016-06-28T22:04:58.996Z,994.16
2016-06-28T22:05:59.005Z,994.18
2016-06-28T22:06:59.019Z,994.17
2016-06-28T22:07:59.227Z,994.15
2016-06-28T22:08:59.030Z,994.15
2016-06-28T22:09:59.043Z,994.18
2016-06-28T22:11:59.053Z,994.17
2016-06-28T22:13:59.094Z,994.17
2016-06-28T22:14:59.319Z,994.18
2016-06-28T22:15:59.108Z,994.13
2016-06-28T22:16:59.106Z,994.15
2016-06-28T22:18:59.118Z,994.19
2016-06-28T22:19:59.335Z,994.14
2016-06-28T22:20:59.150Z,994.18
2016-06-28T22:21:59.159Z,994.17
2016-06-28T22:22:59.160Z,994.15
2016-06-28T22:23:59.169Z,994.12
2016-06-28T22:24:59.174Z,994.13
2016-06-28T22:25:59.180Z,994.18
2016-06-28T22:26:59.198Z,994.16
2016-06-28T22:27:59.203Z,994.15
2016-06-28T22:28:59.211Z,994.13
2016-06-28T22:29:59.217Z,994.15
2016-06-28T22:30:59.224Z,994.12
2016-06-28T22:31:59.229Z,994.14
2016-06-28T22:32:59.242Z,994.11
2016-06-28T22:33:59.246Z,994.11
2016-06-28T22:34:59.458Z,994.08
2016-06-28T22:35:59.673Z,994.09
2016-06-28T22:36:59.678Z,994.06
2016-06-28T22:38:00.098Z,994.06
2016-06-28T22:38:59.290Z,994.07
2016-06-28T22:41:59.318Z,994.01
2016-06-28T22:43:59.541Z,994.04
2016-06-28T22:44:59.362Z,994
2016-06-28T22:45:59.986Z,994.03
2016-06-28T22:46:59.575Z,994.01
2016-06-28T22:47:59.594Z,993.97
2016-06-28T22:48:59.375Z,993.99
2016-06-28T22:49:59.806Z,993.98
2016-06-28T22:50:59.806Z,993.97
2016-06-28T22:51:59.402Z,994
2016-06-28T22:52:59.421Z,994
2016-06-28T22:53:59.423Z,994.01
2016-06-28T22:55:59.438Z,993.94
2016-06-28T22:56:59.443Z,993.9
2016-06-28T22:58:59.482Z,993.89
2016-06-28T22:59:59.473Z,993.93
2016-06-28T23:01:59.690Z,993.89
2016-06-28T23:02:59.507Z,993.89
2016-06-28T23:03:59.517Z,993.88
2016-06-28T23:04:59.522Z,993.85
2016-06-28T23:05:59.527Z,993.82
2016-06-28T23:06:59.531Z,993.8
2016-06-28T23:07:59.542Z,993.75
2016-06-28T23:08:59.541Z,993.79
2016-06-28T23:09:59.557Z,993.77
2016-06-28T23:11:59.776Z,993.77
2016-06-28T23:13:59.793Z,993.7
2016-06-28T23:14:59.594Z,993.7
2016-06-28T23:15:59.611Z,993.67
2016-06-28T23:16:59.823Z,993.61
2016-06-28T23:18:00.032Z,993.63
2016-06-28T23:18:59.635Z,993.62
2016-06-28T23:19:59.630Z,993.63
2016-06-28T23:20:59.647Z,993.64
2016-06-28T23:21:59.862Z,993.64
2016-06-28T23:22:59.662Z,993.6
2016-06-28T23:23:59.689Z,993.6
2016-06-28T23:24:59.677Z,993.62
2016-06-28T23:25:59.687Z,993.61
2016-06-28T23:26:59.692Z,993.65
2016-06-28T23:27:59.698Z,993.6
2016-06-28T23:28:59.706Z,993.59
2016-06-28T23:29:59.713Z,993.54
2016-06-28T23:30:59.726Z,993.55
2016-06-28T23:31:59.734Z,993.55
2016-06-28T23:32:59.741Z,993.57
2016-06-28T23:33:59.759Z,993.52
2016-06-28T23:34:59.762Z,993.57
2016-06-28T23:35:59.768Z,993.54
2016-06-28T23:36:59.772Z,993.55
2016-06-28T23:37:59.796Z,993.53
2016-06-28T23:38:59.994Z,993.55
2016-06-28T23:39:59.999Z,993.56
2016-06-28T23:40:59.811Z,993.57
2016-06-28T23:42:00.022Z,993.54
2016-06-28T23:43:00.231Z,993.54
2016-06-28T23:44:00.441Z,993.54
2016-06-28T23:44:59.839Z,993.51
2016-06-28T23:46:00.058Z,993.51
2016-06-28T23:46:59.854Z,993.52
2016-06-28T23:47:59.863Z,993.5
2016-06-28T23:48:59.869Z,993.52
2016-06-28T23:49:59.899Z,993.51
2016-06-28T23:50:59.886Z,993.52
2016-06-28T23:51:59.900Z,993.51
2016-06-28T23:54:00.145Z,993.53
2016-06-28T23:55:00.357Z,993.48
2016-06-28T23:55:59.949Z,993.46
2016-06-28T23:56:59.953Z,993.45
2016-06-28T23:57:59.951Z,993.43
2016-06-28T23:58:59.961Z,993.44
2016-06-28T23:59:59.968Z,993.41
